Wilton, New Hampshire
Current Conditions -  °F | °C
As of 2:09 AM on Friday 28 Nov 2014 (Local Time) from KASH Reporting Station
Light Snow Light Snow  
Wind Chill: 21°   Ceiling: 900
Heat Index: 28°   Visibility: 1.2mi
Dew Point: 27°   Wind: 7mph
Humidity: 93%   Direction: 330°NNW
Pressure: 30.02"   Gusts: NA
Location:  42.85°N, 71.74°W
Report Text: KASH 280709Z AUTO 33006KT 1 1/4SM -SN BR BKN009 OVC015 M02/M03 A3002 RMK AO2 CIG 005V011 P0000 $
Loading
Personal Weather Stations






























Interactive Weather Map New forecast layout! Learn more

10-Day Weather Forecast

Advertisements
Track Severe Weather on mobile